createdAt,value
2023-05-15T00:00:59.062Z,98715.00
2023-05-15T00:03:29.130Z,98730.00
2023-05-15T00:05:58.971Z,98736.00
2023-05-15T00:08:28.345Z,98735.00
2023-05-15T00:11:01.386Z,98737.00
2023-05-15T00:13:31.336Z,98733.00
2023-05-15T00:16:00.504Z,98738.00
2023-05-15T00:18:29.714Z,98755.00
2023-05-15T00:20:58.871Z,98756.00
2023-05-15T00:23:30.993Z,98746.00
2023-05-15T00:26:00.202Z,98754.00
2023-05-15T00:28:29.304Z,98763.00
2023-05-15T00:30:58.496Z,98761.00
2023-05-15T00:33:29.012Z,98758.00
2023-05-15T00:35:58.535Z,98768.00
2023-05-15T00:38:27.941Z,98772.00
2023-05-15T00:40:58.104Z,98767.00
2023-05-15T00:43:29.478Z,98767.00
2023-05-15T00:46:01.363Z,98770.00
2023-05-15T00:48:32.835Z,98773.00
2023-05-15T00:51:02.689Z,98778.00
2023-05-15T00:53:32.063Z,98774.00
2023-05-15T00:56:02.221Z,98779.00
2023-05-15T00:58:32.951Z,98779.00
2023-05-15T01:01:02.164Z,98791.00
2023-05-15T01:03:32.276Z,98794.00
2023-05-15T01:06:01.703Z,98798.00
2023-05-15T01:08:50.735Z,98799.00
2023-05-15T01:11:22.117Z,98806.00
2023-05-15T01:13:51.256Z,98812.00
2023-05-15T01:16:23.405Z,98818.00
2023-05-15T01:18:52.703Z,98819.00
2023-05-15T01:21:38.995Z,98820.00
2023-05-15T01:24:29.346Z,98826.00
2023-05-15T01:27:25.601Z,98826.00
2023-05-15T01:30:05.903Z,98835.00
2023-05-15T01:33:18.526Z,98838.00
2023-05-15T01:36:35.128Z,98833.00
2023-05-15T01:39:07.081Z,98841.00
2023-05-15T01:42:09.079Z,98853.00
2023-05-15T01:44:50.509Z,98852.00
2023-05-15T01:47:36.738Z,98841.00
2023-05-15T01:50:08.439Z,98837.00
2023-05-15T01:52:44.197Z,98850.00
2023-05-15T01:55:16.630Z,98850.00
2023-05-15T01:57:52.012Z,98856.00
2023-05-15T02:00:29.431Z,98857.00
2023-05-15T02:03:09.158Z,98853.00
2023-05-15T02:05:42.873Z,98854.00
2023-05-15T02:08:20.615Z,98858.00
2023-05-15T02:10:54.554Z,98861.00
2023-05-15T02:13:28.116Z,98860.00
2023-05-15T02:15:59.730Z,98858.00
2023-05-15T02:18:30.105Z,98860.00
2023-05-15T02:21:01.993Z,98862.00
2023-05-15T02:23:31.511Z,98860.00
2023-05-15T02:26:37.123Z,98863.00
2023-05-15T02:29:43.906Z,98857.00
2023-05-15T02:33:11.623Z,98858.00
2023-05-15T02:35:58.939Z,98865.00
2023-05-15T02:38:37.217Z,98867.00
2023-05-15T02:41:07.814Z,98867.00
2023-05-15T02:43:39.653Z,98861.00
2023-05-15T02:46:10.189Z,98861.00
2023-05-15T02:48:44.772Z,98862.00
2023-05-15T02:51:15.580Z,98866.00
2023-05-15T02:53:45.616Z,98865.00
2023-05-15T02:56:14.844Z,98860.00
2023-05-15T02:58:44.165Z,98862.00
2023-05-15T03:01:13.598Z,98849.00
2023-05-15T03:03:42.731Z,98850.00
2023-05-15T03:06:11.884Z,98846.00
2023-05-15T03:08:41.399Z,98855.00
2023-05-15T03:11:10.554Z,98847.00
2023-05-15T03:13:39.709Z,98854.00
2023-05-15T03:16:09.172Z,98852.00
2023-05-15T03:18:38.388Z,98852.00
2023-05-15T03:21:07.740Z,98843.00
2023-05-15T03:23:37.865Z,98843.00
2023-05-15T03:26:07.402Z,98836.00
2023-05-15T03:28:36.540Z,98839.00
2023-05-15T03:31:11.677Z,98837.00
2023-05-15T03:33:41.802Z,98836.00
2023-05-15T03:36:11.136Z,98838.00
2023-05-15T03:38:40.245Z,98839.00
2023-05-15T03:41:09.347Z,98831.00
2023-05-15T03:43:38.460Z,98826.00
2023-05-15T03:46:07.959Z,98829.00
2023-05-15T03:48:37.126Z,98826.00
2023-05-15T03:51:06.419Z,98825.00
2023-05-15T03:53:35.620Z,98816.00
2023-05-15T03:56:04.916Z,98813.00
2023-05-15T03:58:34.035Z,98816.00
2023-05-15T04:01:03.229Z,98813.00
2023-05-15T04:03:32.426Z,98807.00
2023-05-15T04:06:01.715Z,98801.00
2023-05-15T04:08:30.895Z,98800.00
2023-05-15T04:11:00.047Z,98806.00
2023-05-15T04:13:29.292Z,98804.00
2023-05-15T04:16:00.708Z,98799.00
2023-05-15T04:18:29.902Z,98788.00
2023-05-15T04:20:59.011Z,98780.00
2023-05-15T04:23:28.296Z,98786.00
2023-05-15T04:25:57.901Z,98792.00
2023-05-15T04:30:56.246Z,98775.00
2023-05-15T04:33:25.432Z,98782.00
2023-05-15T04:35:54.872Z,98772.00
2023-05-15T04:38:24.027Z,98771.00
2023-05-15T04:40:53.203Z,98765.00
2023-05-15T04:43:22.332Z,98766.00
2023-05-15T04:45:51.738Z,98762.00
2023-05-15T04:48:20.991Z,98763.00
2023-05-15T04:50:50.111Z,98757.00
2023-05-15T04:53:19.278Z,98766.00
2023-05-15T04:55:48.531Z,98757.00
2023-05-15T04:58:17.724Z,98756.00
2023-05-15T05:00:46.988Z,98761.00
2023-05-15T05:03:16.319Z,98758.00
2023-05-15T05:05:45.625Z,98747.00
2023-05-15T05:08:14.850Z,98740.00
2023-05-15T05:10:43.963Z,98740.00
2023-05-15T05:13:13.137Z,98743.00
2023-05-15T05:15:42.364Z,98740.00
2023-05-15T05:18:11.948Z,98734.00
2023-05-15T05:20:41.167Z,98734.00
2023-05-15T05:23:10.365Z,98731.00
2023-05-15T05:25:39.512Z,98724.00
2023-05-15T05:28:08.681Z,98722.00
2023-05-15T05:30:37.833Z,98720.00
2023-05-15T05:33:07.363Z,98719.00
2023-05-15T05:35:36.544Z,98716.00
2023-05-15T05:38:06.046Z,98710.00
2023-05-15T05:40:35.245Z,98703.00
2023-05-15T05:43:05.033Z,98695.00
2023-05-15T05:45:34.146Z,98694.00
2023-05-15T05:48:03.434Z,98692.00
2023-05-15T05:50:32.701Z,98692.00
2023-05-15T05:53:01.882Z,98687.00
2023-05-15T05:55:31.042Z,98685.00
2023-05-15T05:58:01.213Z,98682.00
2023-05-15T06:00:30.823Z,98680.00
2023-05-15T06:03:01.667Z,98669.00
2023-05-15T06:05:31.208Z,98664.00
2023-05-15T06:08:02.076Z,98662.00
2023-05-15T06:10:31.809Z,98656.00
2023-05-15T06:13:00.900Z,98652.00
2023-05-15T06:15:30.205Z,98655.00
2023-05-15T06:17:59.391Z,98652.00
2023-05-15T06:20:28.930Z,98649.00
2023-05-15T06:22:58.252Z,98648.00
2023-05-15T06:25:27.495Z,98651.00
2023-05-15T06:27:56.813Z,98646.00
2023-05-15T06:30:26.226Z,98644.00
2023-05-15T06:32:57.283Z,98639.00
2023-05-15T06:35:26.484Z,98632.00
2023-05-15T06:37:57.811Z,98638.00
2023-05-15T06:40:28.139Z,98626.00
2023-05-15T06:42:57.344Z,98625.00
2023-05-15T06:45:26.743Z,98624.00
2023-05-15T06:47:56.588Z,98614.00
2023-05-15T06:50:26.877Z,98606.00
2023-05-15T06:52:56.148Z,98596.00
2023-05-15T06:55:25.450Z,98602.00
2023-05-15T06:57:54.921Z,98582.00
2023-05-15T07:00:24.163Z,98583.00
2023-05-15T07:02:53.326Z,98583.00
2023-05-15T07:05:23.200Z,98569.00
2023-05-15T07:07:53.025Z,98579.00
2023-05-15T07:10:22.189Z,98574.00
2023-05-15T07:12:51.423Z,98567.00
2023-05-15T07:15:20.630Z,98555.00
2023-05-15T07:17:49.854Z,98559.00
2023-05-15T07:20:19.181Z,98559.00
2023-05-15T07:22:55.773Z,98559.00
2023-05-15T07:25:26.990Z,98555.00
2023-05-15T07:27:56.399Z,98552.00
2023-05-15T07:30:26.602Z,98552.00
2023-05-15T07:32:56.325Z,98547.00
2023-05-15T07:35:25.742Z,98544.00
2023-05-15T07:37:55.126Z,98538.00
2023-05-15T07:40:24.502Z,98530.00
2023-05-15T07:42:53.616Z,98534.00
2023-05-15T07:45:23.134Z,98536.00
2023-05-15T07:47:52.850Z,98534.00
2023-05-15T07:50:22.371Z,98530.00
2023-05-15T07:52:51.519Z,98521.00
2023-05-15T07:55:20.873Z,98520.00
2023-05-15T07:57:53.453Z,98518.00
2023-05-15T08:00:23.424Z,98518.00
2023-05-15T08:02:52.792Z,98508.00
2023-05-15T08:05:22.174Z,98506.00
2023-05-15T08:07:51.827Z,98512.00
2023-05-15T08:10:20.996Z,98507.00
2023-05-15T08:12:51.539Z,98513.00
2023-05-15T08:15:20.676Z,98516.00
2023-05-15T08:17:49.845Z,98505.00
2023-05-15T08:20:19.353Z,98505.00
2023-05-15T08:22:48.630Z,98499.00
2023-05-15T08:25:17.890Z,98498.00
2023-05-15T08:27:47.105Z,98501.00
2023-05-15T08:30:16.470Z,98496.00
2023-05-15T08:32:49.904Z,98492.00
2023-05-15T08:35:19.172Z,98480.00
2023-05-15T08:37:48.410Z,98482.00
2023-05-15T08:40:19.823Z,98483.00
2023-05-15T08:42:56.693Z,98468.00
2023-05-15T08:45:27.318Z,98474.00
2023-05-15T08:48:01.881Z,98472.00
2023-05-15T08:50:31.678Z,98477.00
2023-05-15T08:53:02.626Z,98474.00
2023-05-15T08:55:31.838Z,98467.00
2023-05-15T08:58:01.869Z,98464.00
2023-05-15T09:00:32.363Z,98468.00
2023-05-15T09:03:04.993Z,98457.00
2023-05-15T09:05:34.528Z,98456.00
2023-05-15T09:08:09.684Z,98464.00
2023-05-15T09:10:39.021Z,98449.00
2023-05-15T09:13:09.233Z,98452.00
2023-05-15T09:15:39.720Z,98448.00
2023-05-15T09:18:10.068Z,98452.00
2023-05-15T09:20:40.458Z,98456.00
2023-05-15T09:23:27.465Z,98458.00
2023-05-15T09:25:58.485Z,98460.00
2023-05-15T09:28:34.836Z,98453.00
2023-05-15T09:31:06.190Z,98451.00
2023-05-15T09:33:41.842Z,98460.00
2023-05-15T09:36:11.741Z,98451.00
2023-05-15T09:38:49.160Z,98454.00
2023-05-15T09:41:27.814Z,98456.00
2023-05-15T09:43:59.881Z,98447.00
2023-05-15T09:46:29.333Z,98445.00
2023-05-15T09:48:58.686Z,98448.00
2023-05-15T09:51:29.803Z,98451.00
2023-05-15T09:53:59.334Z,98448.00
2023-05-15T09:56:28.480Z,98451.00
2023-05-15T09:59:03.351Z,98457.00
2023-05-15T10:01:32.515Z,98456.00
2023-05-15T10:04:07.697Z,98450.00
2023-05-15T10:06:43.191Z,98460.00
2023-05-15T10:09:15.044Z,98461.00
2023-05-15T10:11:54.132Z,98460.00
2023-05-15T10:14:25.846Z,98455.00
2023-05-15T10:16:58.174Z,98464.00
2023-05-15T10:19:29.881Z,98461.00
2023-05-15T10:22:01.814Z,98465.00
2023-05-15T10:24:33.693Z,98465.00
2023-05-15T10:27:04.506Z,98468.00
2023-05-15T10:29:35.127Z,98471.00
2023-05-15T10:32:05.968Z,98475.00
2023-05-15T10:34:36.044Z,98471.00
2023-05-15T10:37:07.322Z,98465.00
2023-05-15T10:39:42.063Z,98464.00
2023-05-15T10:42:12.986Z,98461.00
2023-05-15T10:44:42.044Z,98466.00
2023-05-15T10:47:12.082Z,98466.00
2023-05-15T10:49:41.398Z,98468.00
2023-05-15T10:52:11.541Z,98470.00
2023-05-15T10:54:41.154Z,98476.00
2023-05-15T10:57:11.478Z,98474.00
2023-05-15T10:59:42.380Z,98480.00
2023-05-15T11:02:31.344Z,98485.00
2023-05-15T11:05:03.472Z,98485.00
2023-05-15T11:07:32.613Z,98486.00
2023-05-15T11:10:01.818Z,98490.00
2023-05-15T11:12:59.714Z,98498.00
2023-05-15T11:15:28.935Z,98499.00
2023-05-15T11:18:07.156Z,98500.00
2023-05-15T11:20:43.849Z,98508.00
2023-05-15T11:23:12.933Z,98506.00
2023-05-15T11:25:42.317Z,98514.00
2023-05-15T11:28:30.793Z,98508.00
2023-05-15T11:31:08.999Z,98513.00
2023-05-15T11:33:41.712Z,98509.00
2023-05-15T11:36:12.632Z,98515.00
2023-05-15T11:38:42.055Z,98510.00
2023-05-15T11:41:24.903Z,98509.00
2023-05-15T11:43:54.123Z,98511.00
2023-05-15T11:46:24.568Z,98516.00
2023-05-15T11:48:54.237Z,98524.00
2023-05-15T11:51:28.460Z,98530.00
2023-05-15T11:53:58.455Z,98541.00
2023-05-15T11:56:29.435Z,98539.00
2023-05-15T11:59:02.172Z,98544.00
2023-05-15T12:01:48.220Z,98539.00
2023-05-15T12:04:19.480Z,98541.00
2023-05-15T12:06:50.491Z,98550.00
2023-05-15T12:09:22.660Z,98553.00
2023-05-15T12:11:55.979Z,98554.00
2023-05-15T12:14:34.556Z,98560.00
2023-05-15T12:17:05.448Z,98566.00
2023-05-15T12:19:36.919Z,98571.00
2023-05-15T12:22:09.475Z,98575.00
2023-05-15T12:24:40.783Z,98576.00
2023-05-15T12:27:11.128Z,98577.00
2023-05-15T12:29:42.075Z,98577.00
2023-05-15T12:32:12.096Z,98579.00
2023-05-15T12:34:42.044Z,98575.00
2023-05-15T12:37:15.100Z,98583.00
2023-05-15T12:40:13.225Z,98592.00
2023-05-15T12:42:47.356Z,98597.00
2023-05-15T12:45:21.665Z,98596.00
2023-05-15T12:47:52.372Z,98608.00
2023-05-15T12:50:24.185Z,98621.00
2023-05-15T12:52:56.757Z,98624.00
2023-05-15T12:55:35.274Z,98628.00
2023-05-15T12:58:11.242Z,98620.00
2023-05-15T13:00:43.345Z,98618.00
2023-05-15T13:03:14.918Z,98627.00
2023-05-15T13:05:47.357Z,98633.00
2023-05-15T13:08:20.579Z,98629.00
2023-05-15T13:10:59.407Z,98632.00
2023-05-15T13:13:51.460Z,98633.00
2023-05-15T13:16:23.735Z,98627.00
2023-05-15T13:18:54.017Z,98628.00
2023-05-15T13:21:23.281Z,98634.00
2023-05-15T13:23:53.902Z,98639.00
2023-05-15T13:26:23.655Z,98643.00
2023-05-15T13:28:52.768Z,98645.00
2023-05-15T13:31:22.149Z,98646.00
2023-05-15T13:33:51.616Z,98635.00
2023-05-15T13:36:21.007Z,98635.00
2023-05-15T13:38:50.071Z,98637.00
2023-05-15T13:41:19.232Z,98640.00
2023-05-15T13:43:50.212Z,98641.00
2023-05-15T13:46:19.330Z,98647.00
2023-05-15T13:48:48.413Z,98645.00
2023-05-15T13:51:17.565Z,98648.00
2023-05-15T13:53:46.713Z,98650.00
2023-05-15T13:56:15.830Z,98645.00
2023-05-15T13:58:45.015Z,98658.00
2023-05-15T14:01:14.177Z,98668.00
2023-05-15T14:03:43.340Z,98663.00
2023-05-15T14:06:12.543Z,98674.00
2023-05-15T14:08:41.683Z,98687.00
2023-05-15T14:11:19.800Z,98693.00
2023-05-15T14:13:49.011Z,98694.00
2023-05-15T14:16:18.087Z,98690.00
2023-05-15T14:18:47.444Z,98693.00
2023-05-15T14:21:16.637Z,98699.00
2023-05-15T14:23:45.700Z,98695.00
2023-05-15T14:26:14.805Z,98703.00
2023-05-15T14:28:44.076Z,98705.00
2023-05-15T14:31:13.341Z,98704.00
2023-05-15T14:33:43.155Z,98717.00
2023-05-15T14:36:12.254Z,98716.00
2023-05-15T14:38:41.415Z,98724.00
2023-05-15T14:41:10.561Z,98729.00
2023-05-15T14:43:39.714Z,98728.00
2023-05-15T14:46:11.264Z,98738.00
2023-05-15T14:48:40.651Z,98749.00
2023-05-15T14:51:09.728Z,98748.00
2023-05-15T14:53:38.883Z,98749.00
2023-05-15T14:56:08.305Z,98752.00
2023-05-15T14:58:37.383Z,98756.00
2023-05-15T15:01:06.918Z,98756.00
2023-05-15T15:03:36.106Z,98760.00
2023-05-15T15:06:05.410Z,98764.00
2023-05-15T15:08:34.452Z,98761.00
2023-05-15T15:11:03.691Z,98760.00
2023-05-15T15:13:32.857Z,98766.00
2023-05-15T15:16:01.979Z,98764.00
2023-05-15T15:18:31.225Z,98769.00
2023-05-15T15:21:00.397Z,98770.00
2023-05-15T15:23:29.547Z,98774.00
2023-05-15T15:25:58.675Z,98780.00
2023-05-15T15:28:30.186Z,98780.00
2023-05-15T15:30:59.273Z,98780.00
2023-05-15T15:33:29.471Z,98783.00
2023-05-15T15:35:58.652Z,98779.00
2023-05-15T15:38:27.807Z,98788.00
2023-05-15T15:40:57.312Z,98786.00
2023-05-15T15:43:26.687Z,98791.00
2023-05-15T15:45:56.172Z,98787.00
2023-05-15T15:48:25.409Z,98794.00
2023-05-15T15:50:54.628Z,98786.00
2023-05-15T15:53:24.386Z,98799.00
2023-05-15T15:55:53.574Z,98797.00
2023-05-15T15:58:23.826Z,98793.00
2023-05-15T16:00:52.996Z,98792.00
2023-05-15T16:03:25.751Z,98791.00
2023-05-15T16:05:55.002Z,98791.00
2023-05-15T16:08:27.284Z,98784.00
2023-05-15T16:10:56.562Z,98783.00
2023-05-15T16:13:25.744Z,98785.00
2023-05-15T16:15:55.072Z,98780.00
2023-05-15T16:18:24.342Z,98780.00
2023-05-15T16:20:53.556Z,98779.00
2023-05-15T16:23:22.788Z,98775.00
2023-05-15T16:25:52.227Z,98779.00
2023-05-15T16:28:22.148Z,98788.00
2023-05-15T16:30:54.869Z,98783.00
2023-05-15T16:33:24.923Z,98775.00
2023-05-15T16:35:54.368Z,98772.00
2023-05-15T16:38:23.882Z,98757.00
2023-05-15T16:40:53.185Z,98752.00
2023-05-15T16:43:22.809Z,98753.00
2023-05-15T16:45:52.075Z,98753.00
2023-05-15T16:48:21.293Z,98750.00
2023-05-15T16:50:50.584Z,98748.00
2023-05-15T16:53:19.907Z,98749.00
2023-05-15T16:55:49.703Z,98745.00
2023-05-15T16:58:18.853Z,98744.00
2023-05-15T17:00:55.889Z,98737.00
2023-05-15T17:03:25.249Z,98738.00
2023-05-15T17:05:54.544Z,98733.00
2023-05-15T17:08:23.708Z,98729.00
2023-05-15T17:10:53.166Z,98727.00
2023-05-15T17:13:22.734Z,98722.00
2023-05-15T17:15:52.175Z,98721.00
2023-05-15T17:18:22.946Z,98719.00
2023-05-15T17:20:52.425Z,98717.00
2023-05-15T17:23:23.025Z,98716.00
2023-05-15T17:25:52.504Z,98717.00
2023-05-15T17:28:21.758Z,98714.00
2023-05-15T17:30:51.521Z,98713.00
2023-05-15T17:33:20.720Z,98715.00
2023-05-15T17:35:49.852Z,98715.00
2023-05-15T17:38:19.070Z,98708.00
2023-05-15T17:40:49.836Z,98699.00
2023-05-15T17:43:18.996Z,98699.00
2023-05-15T17:45:48.266Z,98703.00
2023-05-15T17:48:17.517Z,98702.00
2023-05-15T17:50:47.289Z,98695.00
2023-05-15T17:53:16.566Z,98691.00
2023-05-15T17:55:46.223Z,98682.00
2023-05-15T17:58:15.416Z,98684.00
2023-05-15T18:00:44.863Z,98685.00
2023-05-15T18:03:14.077Z,98683.00
2023-05-15T18:05:43.341Z,98679.00
2023-05-15T18:08:12.457Z,98662.00
2023-05-15T18:10:41.717Z,98665.00
2023-05-15T18:13:11.078Z,98658.00
2023-05-15T18:15:40.698Z,98658.00
2023-05-15T18:18:10.095Z,98649.00
2023-05-15T18:20:39.296Z,98643.00
2023-05-15T18:23:08.450Z,98633.00
2023-05-15T18:25:37.939Z,98622.00
2023-05-15T18:28:07.325Z,98623.00
2023-05-15T18:30:37.030Z,98622.00
2023-05-15T18:33:06.645Z,98616.00
2023-05-15T18:35:37.728Z,98607.00
2023-05-15T18:38:07.962Z,98604.00
2023-05-15T18:40:37.225Z,98603.00
2023-05-15T18:43:06.469Z,98605.00
2023-05-15T18:45:35.820Z,98606.00
2023-05-15T18:48:05.295Z,98602.00
2023-05-15T18:50:34.673Z,98600.00
2023-05-15T18:53:04.145Z,98606.00
2023-05-15T18:55:33.297Z,98603.00
2023-05-15T18:58:02.424Z,98598.00
2023-05-15T19:00:38.104Z,98599.00
2023-05-15T19:03:09.655Z,98593.00
2023-05-15T19:05:39.090Z,98585.00
2023-05-15T19:08:08.275Z,98585.00
2023-05-15T19:10:37.398Z,98588.00
2023-05-15T19:13:07.176Z,98594.00
2023-05-15T19:15:36.420Z,98592.00
2023-05-15T19:18:05.803Z,98592.00
2023-05-15T19:20:36.437Z,98584.00
2023-05-15T19:23:05.556Z,98580.00
2023-05-15T19:25:34.680Z,98578.00
2023-05-15T19:28:03.876Z,98587.00
2023-05-15T19:30:34.248Z,98583.00
2023-05-15T19:33:03.941Z,98577.00
2023-05-15T19:35:34.595Z,98576.00
2023-05-15T19:38:05.787Z,98580.00
2023-05-15T19:40:37.109Z,98572.00
2023-05-15T19:43:06.285Z,98577.00
2023-05-15T19:45:35.308Z,98582.00
2023-05-15T19:48:04.446Z,98583.00
2023-05-15T19:50:33.520Z,98583.00
2023-05-15T19:53:02.603Z,98595.00
2023-05-15T19:55:31.675Z,98593.00
2023-05-15T19:58:00.876Z,98591.00
2023-05-15T20:00:30.082Z,98590.00
2023-05-15T20:02:59.306Z,98591.00
2023-05-15T20:05:29.368Z,98590.00
2023-05-15T20:07:58.586Z,98579.00
2023-05-15T20:10:27.874Z,98576.00
2023-05-15T20:12:57.134Z,98575.00
2023-05-15T20:15:29.501Z,98575.00
2023-05-15T20:17:59.182Z,98577.00
2023-05-15T20:20:28.607Z,98573.00
2023-05-15T20:22:58.032Z,98580.00
2023-05-15T20:25:27.333Z,98570.00
2023-05-15T20:27:59.502Z,98569.00
2023-05-15T20:30:29.697Z,98567.00
2023-05-15T20:32:59.469Z,98559.00
2023-05-15T20:35:28.826Z,98567.00
2023-05-15T20:37:58.514Z,98562.00
2023-05-15T20:40:28.322Z,98561.00
2023-05-15T20:42:58.050Z,98560.00
2023-05-15T20:45:27.642Z,98567.00
2023-05-15T20:47:56.836Z,98575.00
2023-05-15T20:50:27.016Z,98578.00
2023-05-15T20:52:56.666Z,98579.00
2023-05-15T20:55:25.846Z,98587.00
2023-05-15T20:57:55.285Z,98578.00
2023-05-15T21:00:24.817Z,98583.00
2023-05-15T21:02:54.320Z,98589.00
2023-05-15T21:05:23.954Z,98584.00
2023-05-15T21:07:53.234Z,98586.00
2023-05-15T21:10:22.445Z,98591.00
2023-05-15T21:12:51.932Z,98592.00
2023-05-15T21:15:21.187Z,98585.00
2023-05-15T21:17:50.377Z,98582.00
2023-05-15T21:20:19.638Z,98578.00
2023-05-15T21:22:48.841Z,98587.00
2023-05-15T21:25:20.027Z,98590.00
2023-05-15T21:27:49.233Z,98592.00
2023-05-15T21:30:18.464Z,98594.00
2023-05-15T21:32:48.178Z,98586.00
2023-05-15T21:35:17.672Z,98592.00
2023-05-15T21:37:47.355Z,98594.00
2023-05-15T21:40:16.953Z,98600.00
2023-05-15T21:42:46.892Z,98602.00
2023-05-15T21:45:16.116Z,98599.00
2023-05-15T21:47:45.336Z,98599.00
2023-05-15T21:50:14.528Z,98601.00
2023-05-15T21:52:43.685Z,98607.00
2023-05-15T21:55:13.153Z,98614.00
2023-05-15T21:57:42.663Z,98621.00
2023-05-15T22:00:12.807Z,98618.00
2023-05-15T22:02:42.140Z,98622.00
2023-05-15T22:05:11.536Z,98622.00
2023-05-15T22:07:41.309Z,98620.00
2023-05-15T22:10:14.727Z,98615.00
2023-05-15T22:12:45.325Z,98620.00
2023-05-15T22:15:15.912Z,98620.00
2023-05-15T22:17:45.182Z,98628.00
2023-05-15T22:20:14.946Z,98626.00
2023-05-15T22:22:44.679Z,98642.00
2023-05-15T22:25:14.061Z,98636.00
2023-05-15T22:27:43.643Z,98638.00
2023-05-15T22:30:13.829Z,98646.00
2023-05-15T22:32:44.092Z,98655.00
2023-05-15T22:35:14.194Z,98660.00
2023-05-15T22:37:43.385Z,98658.00
2023-05-15T22:40:13.843Z,98669.00
2023-05-15T22:42:43.061Z,98671.00
2023-05-15T22:45:12.736Z,98680.00
2023-05-15T22:47:41.884Z,98681.00
2023-05-15T22:50:11.817Z,98675.00
2023-05-15T22:52:41.209Z,98682.00
2023-05-15T22:55:11.916Z,98681.00
2023-05-15T22:57:41.390Z,98685.00
2023-05-15T23:00:11.158Z,98682.00
2023-05-15T23:02:42.620Z,98692.00
2023-05-15T23:05:13.571Z,98694.00
2023-05-15T23:07:42.760Z,98705.00
2023-05-15T23:10:12.360Z,98702.00
2023-05-15T23:12:42.022Z,98708.00
2023-05-15T23:15:11.958Z,98704.00
2023-05-15T23:17:41.820Z,98706.00
2023-05-15T23:20:11.517Z,98699.00
2023-05-15T23:22:40.738Z,98699.00
2023-05-15T23:25:10.404Z,98695.00
2023-05-15T23:27:39.586Z,98702.00
2023-05-15T23:30:09.851Z,98707.00
2023-05-15T23:32:39.758Z,98701.00
2023-05-15T23:35:09.419Z,98703.00
2023-05-15T23:37:38.589Z,98706.00
2023-05-15T23:40:08.703Z,98708.00
2023-05-15T23:42:37.908Z,98708.00
2023-05-15T23:45:08.042Z,98712.00
2023-05-15T23:47:40.462Z,98710.00
2023-05-15T23:50:10.410Z,98715.00
2023-05-15T23:52:39.460Z,98712.00
2023-05-15T23:55:09.483Z,98708.00
2023-05-15T23:57:38.593Z,98712.00
